Details From CYPX - Puvirnituq
To CYYQ - Churchill
Flight Number -
Tags Standard
Created
Modified
Stats Distance 522 nm / 967 km
Max Altitude 35,000 ft / 10,668 m
Waypoints 5
Social Downloads 0
Likes 0
Share VATSIM

Download

Looking for another format? Having issues loading an existing format? Contact us
Advertisement - Login to hide

Notes

None

Route

CYPX MIBNA VIMSA YYQ CYYQ

ID Type Via Altitude Latitude Longitude Leg Dist Tot Dist Heading (true) Name
O CYPX APT - 74 ft / 23 m 60.05042˚ -77.28694˚ - 0 nm - PUVIRNITUQ
MIBNA FIX - 35,000 ft / 10,668 m 60.08333˚ -80.00000˚ 81 nm 81 nm 273° / 270° -
VIMSA FIX - 35,000 ft / 10,668 m 59.16667˚ -90.00000˚ 308 nm 389 nm 264° / 255° -
YYQ VOR - 1,427 ft / 435 m 58.74167˚ -94.13528˚ 130 nm 520 nm 261° / 257° CHURCHILL VOR-DME
O CYYQ APT - 94 ft / 29 m 58.73450˚ -94.06657˚ 2 nm 522 nm 101° / 101° -

Altitude Profile

Advertisement - Login to hide

Weather


0- 5 10 15 20 25 30 35+ Temperature / ° C

Clouds and Precipitation
Forecast for 2017-12-11 06:00 UTC. Updated 38 minutes ago

Ground ~20,000 ft ~40,000 ft Winds

CYPX

Details ICAO CYPX (YPX)
Name PUVIRNITUQ
Region Canada
Timezone America/Montreal (UTC-5.0)
Stats Elevation 74 ft / 23 m (AMSL)
Location 60.050418° -77.286945°
Runways 1
Magnetic Variation 19.952° W

METAR

CYPX 110500Z AUTO 11007KT 9SM SCT095 SCT250 M26/M29 A2956 RMK SLP017

Decode

TAF

TAF CYPX 110538Z 1106/1118 11008KT P6SM SCT030 TEMPO 1106/1118 5SM IC BKN020 BECMG 1109/1111 VRB03KT RMK FCST BASED ON AUTO OBS. NXT FCST BY 111200Z

Decode

Departure Runways

ID Width Length Bearing (true) Bearing (mag) Surface Threshold Offset Overrun Length
01 100 ft / 30 m 4,971 ft / 1,515 m 343.44° 3.39° Gravel 0 ft / 0 m 0 ft / 0 m
19 100 ft / 30 m 4,971 ft / 1,515 m 163.44° 183.39° Gravel 0 ft / 0 m 0 ft / 0 m

CYYQ

Details ICAO CYYQ (YYQ)
Name CHURCHILL
Region Canada
Timezone America/Winnipeg (UTC-6.0)
Stats Elevation 94 ft / 29 m (AMSL)
Location 58.743971° -94.063864°
Runways 2
Magnetic Variation 2.069° W

METAR

CYYQ 110500Z 34014KT 4SM -SN DRSN OVC021 M15/M17 A2993 RMK SC8 SLP140

Decode

TAF

TAF CYYQ 110539Z 1106/1206 34015KT P6SM FEW020 SCT040 TEMPO 1106/1110 5SM IC FM111000 32020KT 6SM IC BKN030 TEMPO 1110/1120 1SM IC BLSN FM112000 32015KT 5SM IC FEW020 RMK NXT FCST BY 111200Z

Decode

Destination Runways

ID Width Length Bearing (true) Bearing (mag) Surface Threshold Offset Overrun Length
07 100 ft / 30 m 3,988 ft / 1,215 m 70.97° 73.04° Gravel 0 ft / 0 m 0 ft / 0 m
15 160 ft / 49 m 9,178 ft / 2,797 m 152.64° 154.71° Asphalt 0 ft / 0 m 0 ft / 0 m
25 100 ft / 30 m 3,988 ft / 1,215 m 250.99° 253.06° Gravel 0 ft / 0 m 0 ft / 0 m
33 160 ft / 49 m 9,178 ft / 2,797 m 332.66° 334.73° Asphalt 0 ft / 0 m 0 ft / 0 m